createdAt,value
2022-10-30T00:00:35.606Z,100370.00
2022-10-30T00:03:03.379Z,100366.00
2022-10-30T00:05:31.724Z,100366.00
2022-10-30T00:07:59.925Z,100372.00
2022-10-30T00:10:27.817Z,100365.00
2022-10-30T00:12:55.398Z,100367.00
2022-10-30T00:15:22.812Z,100366.00
2022-10-30T00:17:50.568Z,100362.00
2022-10-30T00:20:18.094Z,100366.00
2022-10-30T00:22:45.440Z,100371.00
2022-10-30T00:25:13.101Z,100385.00
2022-10-30T00:27:40.669Z,100385.00
2022-10-30T00:30:09.193Z,100376.00
2022-10-30T00:32:36.975Z,100363.00
2022-10-30T00:35:06.616Z,100369.00
2022-10-30T00:37:35.344Z,100397.00
2022-10-30T00:40:03.946Z,100383.00
2022-10-30T00:42:33.294Z,100360.00
2022-10-30T00:45:00.733Z,100364.00
2022-10-30T00:47:52.308Z,100366.00
2022-10-30T00:50:32.258Z,100374.00
2022-10-30T00:53:01.472Z,100370.00
2022-10-30T00:58:59.528Z,100358.00
2022-10-30T01:01:29.435Z,100351.00
2022-10-30T01:04:00.709Z,100353.00
2022-10-30T01:06:29.978Z,100347.00
2022-10-30T01:09:00.071Z,100347.00
2022-10-30T01:17:20.602Z,100338.00
2022-10-30T01:23:31.307Z,100336.00
2022-10-30T01:26:34.647Z,100340.00
2022-10-30T01:29:48.052Z,100337.00
2022-10-30T01:38:52.732Z,100339.00
2022-10-30T01:41:20.495Z,100337.00
2022-10-30T01:44:00.651Z,100342.00
2022-10-30T01:46:46.557Z,100348.00
2022-10-30T01:49:44.844Z,100342.00
2022-10-30T01:52:58.670Z,100340.00
2022-10-30T01:56:11.806Z,100335.00
2022-10-30T01:58:52.156Z,100344.00
2022-10-30T02:01:21.914Z,100337.00
2022-10-30T02:03:49.795Z,100326.00
2022-10-30T02:06:18.092Z,100342.00
2022-10-30T02:08:47.709Z,100336.00
2022-10-30T02:11:17.307Z,100341.00
2022-10-30T02:13:45.336Z,100345.00
2022-10-30T02:16:12.959Z,100349.00
2022-10-30T02:18:42.919Z,100342.00
2022-10-30T02:21:10.583Z,100346.00
2022-10-30T02:23:39.289Z,100340.00
2022-10-30T02:26:07.014Z,100337.00
2022-10-30T02:31:19.642Z,100335.00
2022-10-30T02:36:33.231Z,100334.00
2022-10-30T02:39:00.770Z,100337.00
2022-10-30T02:44:13.169Z,100330.00
2022-10-30T02:46:40.954Z,100333.00
2022-10-30T02:49:08.360Z,100337.00
2022-10-30T02:51:36.062Z,100331.00
2022-10-30T02:54:03.601Z,100335.00
2022-10-30T02:56:32.618Z,100326.00
2022-10-30T02:59:01.841Z,100331.00
2022-10-30T03:04:15.370Z,100341.00
2022-10-30T03:06:43.969Z,100338.00
2022-10-30T03:09:11.626Z,100335.00
2022-10-30T03:14:24.072Z,100341.00
2022-10-30T03:16:52.681Z,100344.00
2022-10-30T03:19:21.348Z,100338.00
2022-10-30T03:24:33.931Z,100342.00
2022-10-30T03:27:01.439Z,100344.00
2022-10-30T03:29:31.308Z,100344.00
2022-10-30T03:31:58.919Z,100342.00
2022-10-30T03:34:31.502Z,100334.00
2022-10-30T03:37:00.427Z,100332.00
2022-10-30T03:42:13.934Z,100334.00
2022-10-30T03:44:41.368Z,100325.00
2022-10-30T03:49:42.062Z,100319.00
2022-10-30T03:54:58.428Z,100319.00
2022-10-30T03:57:26.311Z,100321.00
2022-10-30T04:00:14.283Z,100318.00
2022-10-30T04:02:49.969Z,100333.00
2022-10-30T04:05:20.965Z,100332.00
2022-10-30T04:07:56.309Z,100326.00
2022-10-30T04:10:25.009Z,100325.00
2022-10-30T04:13:00.661Z,100333.00
2022-10-30T04:15:28.462Z,100326.00
2022-10-30T04:17:56.433Z,100326.00
2022-10-30T04:20:25.875Z,100334.00
2022-10-30T04:23:06.399Z,100334.00
2022-10-30T04:25:35.880Z,100339.00
2022-10-30T04:28:06.925Z,100333.00
2022-10-30T04:30:37.051Z,100333.00
2022-10-30T04:35:52.880Z,100334.00
2022-10-30T04:44:01.843Z,100336.00
2022-10-30T04:46:33.123Z,100331.00
2022-10-30T04:49:08.237Z,100340.00
2022-10-30T04:51:36.033Z,100337.00
2022-10-30T04:54:06.036Z,100339.00
2022-10-30T04:56:33.770Z,100335.00
2022-10-30T04:59:02.168Z,100335.00
2022-10-30T05:01:29.947Z,100334.00
2022-10-30T05:03:59.279Z,100337.00
2022-10-30T05:06:30.775Z,100335.00
2022-10-30T05:08:58.897Z,100336.00
2022-10-30T05:11:33.841Z,100326.00
2022-10-30T05:14:01.365Z,100332.00
2022-10-30T05:19:13.896Z,100341.00
2022-10-30T05:21:47.647Z,100338.00
2022-10-30T05:24:16.043Z,100339.00
2022-10-30T05:29:31.370Z,100342.00
2022-10-30T05:31:59.993Z,100340.00
2022-10-30T05:34:38.438Z,100348.00
2022-10-30T05:37:06.048Z,100340.00
2022-10-30T05:39:33.650Z,100338.00
2022-10-30T05:42:01.126Z,100339.00
2022-10-30T05:44:59.859Z,100326.00
2022-10-30T05:47:27.785Z,100344.00
2022-10-30T05:49:57.261Z,100336.00
2022-10-30T05:55:17.055Z,100345.00
2022-10-30T05:58:06.920Z,100344.00
2022-10-30T06:00:36.937Z,100348.00
2022-10-30T06:03:08.436Z,100357.00
2022-10-30T06:05:37.938Z,100351.00
2022-10-30T06:16:38.436Z,100358.00
2022-10-30T06:22:15.465Z,100365.00
2022-10-30T06:24:49.088Z,100363.00
2022-10-30T06:27:28.853Z,100369.00
2022-10-30T06:32:41.074Z,100361.00
2022-10-30T06:35:09.189Z,100354.00
2022-10-30T06:37:39.418Z,100379.00
2022-10-30T06:40:11.766Z,100378.00
2022-10-30T06:45:48.007Z,100393.00
2022-10-30T06:51:03.175Z,100385.00
2022-10-30T06:53:33.774Z,100383.00
2022-10-30T06:56:21.320Z,100389.00
2022-10-30T06:59:11.937Z,100393.00
2022-10-30T07:04:46.021Z,100408.00
2022-10-30T07:07:15.802Z,100404.00
2022-10-30T07:09:43.727Z,100410.00
2022-10-30T07:12:13.279Z,100412.00
2022-10-30T07:14:48.845Z,100412.00
2022-10-30T07:17:36.385Z,100410.00
2022-10-30T07:20:11.654Z,100414.00
2022-10-30T07:22:40.057Z,100423.00
2022-10-30T07:25:09.378Z,100425.00
2022-10-30T07:27:58.158Z,100420.00
2022-10-30T07:30:35.210Z,100421.00
2022-10-30T07:33:28.521Z,100423.00
2022-10-30T07:36:35.165Z,100440.00
2022-10-30T07:39:20.787Z,100446.00
2022-10-30T07:42:18.926Z,100446.00
2022-10-30T07:48:08.867Z,100444.00
2022-10-30T07:50:48.312Z,100459.00
2022-10-30T07:53:15.995Z,100461.00
2022-10-30T07:55:45.948Z,100462.00
2022-10-30T07:58:33.440Z,100459.00
2022-10-30T08:01:06.853Z,100467.00
2022-10-30T08:03:35.885Z,100467.00
2022-10-30T08:06:24.625Z,100462.00
2022-10-30T08:08:57.380Z,100463.00
2022-10-30T08:11:27.622Z,100466.00
2022-10-30T08:13:55.889Z,100476.00
2022-10-30T08:16:24.607Z,100476.00
2022-10-30T08:18:52.790Z,100465.00
2022-10-30T08:21:24.443Z,100469.00
2022-10-30T08:32:27.413Z,100469.00
2022-10-30T08:35:19.820Z,100474.00
2022-10-30T08:40:33.824Z,100469.00
2022-10-30T08:43:08.108Z,100472.00
2022-10-30T08:48:22.494Z,100458.00
2022-10-30T08:50:51.096Z,100460.00
2022-10-30T08:53:26.473Z,100465.00
2022-10-30T08:55:55.213Z,100458.00
2022-10-30T08:58:28.244Z,100459.00
2022-10-30T09:01:01.073Z,100453.00
2022-10-30T09:07:07.627Z,100444.00
2022-10-30T09:09:37.790Z,100438.00
2022-10-30T09:17:47.500Z,100436.00
2022-10-30T09:20:15.259Z,100441.00
2022-10-30T09:31:34.814Z,100442.00
2022-10-30T09:34:04.415Z,100433.00
2022-10-30T09:39:31.562Z,100442.00
2022-10-30T09:42:21.183Z,100433.00
2022-10-30T09:45:44.814Z,100441.00
2022-10-30T09:48:52.469Z,100452.00
2022-10-30T09:51:50.686Z,100440.00
2022-10-30T09:54:37.292Z,100441.00
2022-10-30T09:57:34.103Z,100444.00
2022-10-30T10:04:00.944Z,100448.00
2022-10-30T10:06:45.604Z,100439.00
2022-10-30T10:09:25.636Z,100444.00
2022-10-30T10:12:42.106Z,100443.00
2022-10-30T10:15:23.326Z,100442.00
2022-10-30T10:20:42.987Z,100442.00
2022-10-30T10:26:33.763Z,100445.00
2022-10-30T10:29:28.824Z,100440.00
2022-10-30T10:32:33.616Z,100445.00
2022-10-30T10:38:46.492Z,100450.00
2022-10-30T10:41:53.417Z,100449.00
2022-10-30T10:48:04.183Z,100444.00
2022-10-30T10:50:39.181Z,100444.00
2022-10-30T10:53:19.137Z,100434.00
2022-10-30T10:58:52.193Z,100424.00
2022-10-30T11:01:26.643Z,100430.00
2022-10-30T11:04:20.539Z,100421.00
2022-10-30T11:06:52.540Z,100412.00
2022-10-30T11:09:25.614Z,100412.00
2022-10-30T11:11:55.606Z,100409.00
2022-10-30T11:14:28.530Z,100413.00
2022-10-30T11:29:25.161Z,100412.00
2022-10-30T11:32:05.786Z,100417.00
2022-10-30T11:34:39.843Z,100415.00
2022-10-30T11:37:32.253Z,100407.00
2022-10-30T11:40:14.617Z,100415.00
2022-10-30T11:42:48.225Z,100404.00
2022-10-30T11:45:38.332Z,100408.00
2022-10-30T11:48:19.609Z,100410.00
2022-10-30T11:53:41.316Z,100398.00
2022-10-30T11:56:21.667Z,100395.00
2022-10-30T11:58:59.115Z,100388.00
2022-10-30T12:01:32.498Z,100401.00
2022-10-30T12:07:19.578Z,100394.00
2022-10-30T12:09:48.448Z,100385.00
2022-10-30T12:12:36.414Z,100390.00
2022-10-30T12:15:24.458Z,100386.00
2022-10-30T12:23:35.180Z,100383.00
2022-10-30T12:26:11.602Z,100383.00
2022-10-30T12:32:01.640Z,100365.00
2022-10-30T12:40:47.188Z,100368.00
2022-10-30T12:46:29.755Z,100369.00
2022-10-30T12:49:13.080Z,100366.00
2022-10-30T12:52:02.853Z,100358.00
2022-10-30T12:54:59.774Z,100361.00
2022-10-30T12:57:38.040Z,100366.00
2022-10-30T13:03:29.653Z,100357.00
2022-10-30T13:06:06.272Z,100360.00
2022-10-30T13:09:02.881Z,100359.00
2022-10-30T13:11:59.238Z,100358.00
2022-10-30T13:17:28.880Z,100356.00
2022-10-30T13:19:56.860Z,100352.00
2022-10-30T13:22:43.342Z,100347.00
2022-10-30T13:28:52.883Z,100342.00
2022-10-30T13:31:58.106Z,100333.00
2022-10-30T13:35:18.094Z,100333.00
2022-10-30T13:38:28.556Z,100330.00
2022-10-30T13:41:28.561Z,100320.00
2022-10-30T13:44:13.957Z,100321.00
2022-10-30T13:50:08.799Z,100314.00
2022-10-30T13:52:39.998Z,100314.00
2022-10-30T13:55:36.247Z,100309.00
2022-10-30T13:58:39.718Z,100309.00
2022-10-30T14:01:41.647Z,100308.00
2022-10-30T14:04:27.201Z,100312.00
2022-10-30T14:07:27.449Z,100303.00
2022-10-30T14:10:27.474Z,100300.00
2022-10-30T14:12:58.164Z,100299.00
2022-10-30T14:15:35.206Z,100304.00
2022-10-30T14:18:15.567Z,100308.00
2022-10-30T14:20:49.867Z,100308.00
2022-10-30T14:23:20.400Z,100306.00
2022-10-30T14:26:03.934Z,100323.00
2022-10-30T14:28:34.969Z,100326.00
2022-10-30T14:31:19.270Z,100326.00
2022-10-30T14:33:55.142Z,100330.00
2022-10-30T14:36:34.446Z,100322.00
2022-10-30T14:39:11.209Z,100333.00
2022-10-30T14:45:01.973Z,100325.00
2022-10-30T14:48:06.013Z,100325.00
2022-10-30T14:50:51.511Z,100335.00
2022-10-30T14:56:30.548Z,100336.00
2022-10-30T14:59:14.432Z,100336.00
2022-10-30T15:05:54.948Z,100334.00
2022-10-30T15:08:46.895Z,100330.00
2022-10-30T15:11:45.419Z,100335.00
2022-10-30T15:14:52.926Z,100324.00
2022-10-30T15:17:44.187Z,100323.00
2022-10-30T15:20:26.610Z,100319.00
2022-10-30T15:23:04.587Z,100322.00
2022-10-30T15:28:40.344Z,100333.00
2022-10-30T15:31:18.542Z,100334.00
2022-10-30T15:36:43.238Z,100333.00
2022-10-30T15:39:15.838Z,100325.00
2022-10-30T15:41:59.768Z,100317.00
2022-10-30T15:44:42.746Z,100319.00
2022-10-30T15:47:17.516Z,100320.00
2022-10-30T15:52:43.745Z,100317.00
2022-10-30T15:55:17.461Z,100330.00
2022-10-30T15:58:07.371Z,100323.00
2022-10-30T16:06:16.737Z,100325.00
2022-10-30T16:08:47.974Z,100334.00
2022-10-30T16:11:16.027Z,100335.00
2022-10-30T16:13:43.857Z,100339.00
2022-10-30T16:16:19.879Z,100333.00
2022-10-30T16:18:47.917Z,100335.00
2022-10-30T16:21:19.162Z,100338.00
2022-10-30T16:23:55.876Z,100334.00
2022-10-30T16:26:41.512Z,100333.00
2022-10-30T16:32:02.445Z,100330.00
2022-10-30T16:37:27.857Z,100331.00
2022-10-30T16:39:56.776Z,100330.00
2022-10-30T16:45:11.752Z,100326.00
2022-10-30T16:50:38.549Z,100321.00
2022-10-30T16:53:20.896Z,100318.00
2022-10-30T16:55:49.083Z,100322.00
2022-10-30T16:58:18.956Z,100323.00
2022-10-30T17:00:56.808Z,100330.00
2022-10-30T17:03:28.859Z,100332.00
2022-10-30T17:08:54.803Z,100337.00
2022-10-30T17:11:42.145Z,100340.00
2022-10-30T17:17:30.129Z,100346.00
2022-10-30T17:20:19.210Z,100346.00
2022-10-30T17:25:41.066Z,100352.00
2022-10-30T17:28:26.637Z,100355.00
2022-10-30T17:30:54.453Z,100359.00
2022-10-30T17:33:35.501Z,100360.00
2022-10-30T17:36:06.445Z,100366.00
2022-10-30T17:38:34.195Z,100362.00
2022-10-30T17:41:02.697Z,100365.00
2022-10-30T17:43:48.011Z,100366.00
2022-10-30T17:49:00.580Z,100367.00
2022-10-30T17:51:29.474Z,100379.00
2022-10-30T17:53:57.159Z,100365.00
2022-10-30T17:56:30.292Z,100370.00
2022-10-30T17:58:57.747Z,100376.00
2022-10-30T18:01:27.439Z,100379.00
2022-10-30T18:03:56.224Z,100382.00
2022-10-30T18:06:27.466Z,100379.00
2022-10-30T18:08:55.547Z,100386.00
2022-10-30T18:11:25.139Z,100377.00
2022-10-30T18:19:24.116Z,100387.00
2022-10-30T18:21:52.032Z,100388.00
2022-10-30T18:24:19.389Z,100376.00
2022-10-30T18:26:47.431Z,100382.00
2022-10-30T18:29:15.074Z,100382.00
2022-10-30T18:31:42.671Z,100375.00
2022-10-30T18:39:51.289Z,100390.00
2022-10-30T18:42:19.025Z,100380.00
2022-10-30T18:44:46.396Z,100382.00
2022-10-30T18:47:14.156Z,100383.00
2022-10-30T18:49:41.544Z,100386.00
2022-10-30T18:52:10.027Z,100370.00
2022-10-30T18:57:22.241Z,100381.00
2022-10-30T18:59:49.729Z,100381.00
2022-10-30T19:02:24.386Z,100389.00
2022-10-30T19:10:22.231Z,100400.00
2022-10-30T19:13:10.889Z,100399.00
2022-10-30T19:15:40.884Z,100393.00
2022-10-30T19:18:08.563Z,100394.00
2022-10-30T19:23:25.835Z,100400.00
2022-10-30T19:25:53.700Z,100404.00
2022-10-30T19:28:22.067Z,100404.00
2022-10-30T19:30:50.561Z,100406.00
2022-10-30T19:33:20.250Z,100410.00
2022-10-30T19:36:02.633Z,100415.00
2022-10-30T19:38:30.964Z,100417.00
2022-10-30T19:40:59.096Z,100414.00
2022-10-30T19:46:12.696Z,100420.00
2022-10-30T19:51:25.243Z,100412.00
2022-10-30T19:53:54.052Z,100424.00
2022-10-30T19:56:22.336Z,100419.00
2022-10-30T19:58:50.495Z,100426.00
2022-10-30T20:04:03.228Z,100431.00
2022-10-30T20:06:30.898Z,100430.00
2022-10-30T20:09:00.664Z,100432.00
2022-10-30T20:11:28.501Z,100438.00
2022-10-30T20:13:56.515Z,100436.00
2022-10-30T20:16:24.685Z,100435.00
2022-10-30T20:21:37.248Z,100431.00
2022-10-30T20:24:06.171Z,100432.00
2022-10-30T20:29:19.096Z,100440.00
2022-10-30T20:31:46.657Z,100432.00
2022-10-30T20:34:14.312Z,100444.00
2022-10-30T20:36:41.910Z,100446.00
2022-10-30T20:41:58.939Z,100448.00
2022-10-30T20:44:26.698Z,100452.00
2022-10-30T20:46:54.218Z,100453.00
2022-10-30T20:49:21.893Z,100447.00
2022-10-30T20:51:49.547Z,100448.00
2022-10-30T20:57:02.992Z,100450.00
2022-10-30T20:59:33.065Z,100455.00
2022-10-30T21:02:00.913Z,100454.00
2022-10-30T21:04:28.655Z,100462.00
2022-10-30T21:06:56.309Z,100464.00
2022-10-30T21:09:24.074Z,100476.00
2022-10-30T21:11:52.919Z,100470.00
2022-10-30T21:14:20.425Z,100472.00
2022-10-30T21:16:48.235Z,100476.00
2022-10-30T21:22:02.564Z,100479.00
2022-10-30T21:24:30.379Z,100478.00
2022-10-30T21:29:46.426Z,100487.00
2022-10-30T21:32:14.782Z,100483.00
2022-10-30T21:34:42.298Z,100486.00
2022-10-30T21:39:54.990Z,100486.00
2022-10-30T21:42:22.654Z,100495.00
2022-10-30T21:44:49.977Z,100489.00
2022-10-30T21:47:17.433Z,100483.00
2022-10-30T21:52:29.938Z,100485.00
2022-10-30T21:54:57.372Z,100498.00
2022-10-30T21:57:24.857Z,100495.00
2022-10-30T21:59:52.281Z,100496.00
2022-10-30T22:02:19.736Z,100492.00
2022-10-30T22:04:48.237Z,100491.00
2022-10-30T22:07:18.590Z,100492.00
2022-10-30T22:09:46.754Z,100504.00
2022-10-30T22:12:14.485Z,100498.00
2022-10-30T22:22:56.737Z,100507.00
2022-10-30T22:25:24.279Z,100511.00
2022-10-30T22:27:51.621Z,100515.00
2022-10-30T22:30:19.147Z,100516.00
2022-10-30T22:32:46.463Z,100518.00
2022-10-30T22:37:58.884Z,100519.00
2022-10-30T22:40:26.347Z,100517.00
2022-10-30T22:42:53.837Z,100520.00
2022-10-30T22:45:21.271Z,100518.00
2022-10-30T22:47:48.627Z,100517.00
2022-10-30T22:50:16.170Z,100517.00
2022-10-30T22:52:43.660Z,100523.00
2022-10-30T22:55:11.302Z,100526.00
2022-10-30T22:57:38.921Z,100520.00
2022-10-30T23:00:07.660Z,100524.00
2022-10-30T23:02:35.314Z,100526.00
2022-10-30T23:05:02.841Z,100525.00
2022-10-30T23:07:30.656Z,100531.00
2022-10-30T23:09:58.366Z,100526.00
2022-10-30T23:12:26.040Z,100529.00
2022-10-30T23:14:53.523Z,100539.00
2022-10-30T23:17:20.813Z,100527.00
2022-10-30T23:19:48.270Z,100529.00
2022-10-30T23:22:15.537Z,100528.00
2022-10-30T23:24:43.028Z,100526.00
2022-10-30T23:27:10.645Z,100536.00
2022-10-30T23:29:38.196Z,100536.00
2022-10-30T23:32:07.470Z,100537.00
2022-10-30T23:34:34.746Z,100538.00
2022-10-30T23:37:02.236Z,100543.00
2022-10-30T23:39:29.678Z,100535.00
2022-10-30T23:41:59.856Z,100547.00
2022-10-30T23:44:27.452Z,100553.00
2022-10-30T23:46:54.926Z,100544.00
2022-10-30T23:49:22.334Z,100548.00
2022-10-30T23:51:49.691Z,100549.00
2022-10-30T23:54:17.101Z,100551.00
2022-10-30T23:56:44.525Z,100551.00
2022-10-30T23:59:11.990Z,100555.00
